Time;durP1;ratioP1;P1;durP2;ratioP2;P2;SDS_P1;SDS_P2;PMS_P1;PMS_P2;Temp;Humidity;BMP_temperature;BMP_pressure;BME280_temperature;BME280_humidity;BME280_pressure;Samples;Min_cycle;Max_cycle;Signal;HPM_P1;HPM_P2
2023/05/11 00:01:04;;;;;;;7.60;6.90;;;;;;;10.61;64.87;94798.69;4223728;28;20388;-60
2023/05/11 00:03:06;;;;;;;8.23;6.97;;;;;;;10.66;64.86;94798.22;4223164;28;20465;-60
2023/05/11 00:05:08;;;;;;;9.63;7.38;;;;;;;10.59;64.63;94803.28;4228327;28;20059;-60
2023/05/11 00:07:10;;;;;;;11.05;6.88;;;;;;;10.63;64.73;94804.59;4217248;28;20082;-61
2023/05/11 00:09:11;;;;;;;9.57;7.00;;;;;;;10.59;64.63;94799.84;4209457;28;20076;-58
2023/05/11 00:11:13;;;;;;;13.40;7.15;;;;;;;10.53;65.02;94803.91;4216221;28;20044;-58
2023/05/11 00:13:15;;;;;;;8.95;7.05;;;;;;;10.43;65.01;94803.19;4218977;28;20104;-58
2023/05/11 00:15:17;;;;;;;8.52;6.55;;;;;;;10.38;65.28;94794.97;4211858;28;20145;-59
2023/05/11 00:17:19;;;;;;;9.38;6.82;;;;;;;10.31;64.72;94800.03;4205666;28;20052;-59
2023/05/11 00:19:21;;;;;;;7.70;6.20;;;;;;;10.28;65.48;94795.03;4213962;28;20079;-57
2023/05/11 00:21:22;;;;;;;7.05;6.35;;;;;;;10.13;65.36;94797.44;4213207;28;20055;-60
2023/05/11 00:23:24;;;;;;;8.02;7.22;;;;;;;10.21;65.35;94805.31;4213273;28;20458;-61
2023/05/11 00:25:26;;;;;;;8.82;7.10;;;;;;;10.21;65.61;94801.88;4212019;28;20210;-61
2023/05/11 00:27:27;;;;;;;12.05;7.30;;;;;;;10.16;65.72;94797.13;4213097;28;20113;-60
2023/05/11 00:29:29;;;;;;;8.27;6.70;;;;;;;10.15;65.39;94805.97;4223972;28;20051;-61
2023/05/11 00:31:31;;;;;;;10.38;7.32;;;;;;;10.14;65.75;94801.69;4222397;28;20130;-61
2023/05/11 00:33:33;;;;;;;10.93;7.13;;;;;;;10.19;65.65;94806.44;4221234;28;20055;-59
2023/05/11 00:35:34;;;;;;;9.63;7.32;;;;;;;10.27;65.61;94803.88;4215805;28;20073;-60
2023/05/11 00:37:37;;;;;;;7.50;6.70;;;;;;;10.35;65.76;94806.59;4218381;28;20048;-61
2023/05/11 00:39:39;;;;;;;9.45;6.68;;;;;;;10.25;65.63;94806.66;4212243;28;20154;-61
2023/05/11 00:41:41;;;;;;;9.95;7.20;;;;;;;10.21;65.85;94809.72;4225109;28;20186;-61
2023/05/11 00:43:42;;;;;;;8.23;7.40;;;;;;;10.19;65.72;94811.69;4213393;28;20083;-60
2023/05/11 00:45:46;;;;;;;8.02;7.22;;;;;;;10.13;66.27;94810.53;4222929;28;20055;-60
2023/05/11 00:47:48;;;;;;;8.20;7.40;;;;;;;10.10;66.39;94812.63;4212727;28;20134;-61
2023/05/11 00:49:52;;;;;;;9.35;7.72;;;;;;;10.14;66.73;94811.34;4214146;28;20051;-62
2023/05/11 00:51:54;;;;;;;16.25;7.55;;;;;;;10.18;66.10;94816.09;4224443;28;20467;-62
2023/05/11 00:53:55;;;;;;;8.75;7.85;;;;;;;10.16;66.48;94814.63;4227367;28;20065;-59
2023/05/11 00:55:58;;;;;;;9.55;7.43;;;;;;;10.17;66.01;94811.84;4227605;28;20128;-59
2023/05/11 00:57:59;;;;;;;9.13;7.80;;;;;;;10.22;65.75;94814.00;4227205;28;20465;-59
2023/05/11 01:00:02;;;;;;;9.70;7.88;;;;;;;10.15;66.36;94816.44;4224818;28;20079;-61
2023/05/11 01:02:04;;;;;;;8.63;7.57;;;;;;;10.24;66.43;94819.91;4223214;28;20485;-60
2023/05/11 01:04:06;;;;;;;8.20;7.40;;;;;;;10.32;65.90;94816.53;4223698;28;20047;-60
2023/05/11 01:06:15;;;;;;;10.85;7.30;;;;;;;10.32;66.01;94819.16;4221053;28;20385;-59
2023/05/11 01:08:21;;;;;;;9.23;7.35;;;;;;;10.34;66.00;94814.59;4215680;27;20081;-57
2023/05/11 01:10:30;;;;;;;8.80;8.00;;;;;;;10.38;66.05;94816.75;4218517;28;20075;-59
2023/05/11 01:12:46;;;;;;;8.43;7.50;;;;;;;10.46;65.41;94808.13;4225973;28;20048;-60
2023/05/11 01:15:13;;;;;;;8.65;7.38;;;;;;;10.41;65.75;94813.00;4205226;28;20044;-61
2023/05/11 01:17:22;;;;;;;9.63;8.50;;;;;;;10.43;65.70;94811.03;4221554;28;20052;-63
2023/05/11 01:19:46;;;;;;;9.07;7.18;;;;;;;10.34;65.78;94814.59;4199149;28;20091;-61
2023/05/11 01:21:49;;;;;;;7.88;7.07;;;;;;;10.34;65.49;94815.41;4210806;28;20060;-59
2023/05/11 01:24:06;;;;;;;8.63;7.90;;;;;;;10.31;65.75;94814.91;4211263;28;20040;-60
2023/05/11 01:26:10;;;;;;;8.80;7.68;;;;;;;10.28;66.28;94815.19;4211779;28;20405;-59
2023/05/11 01:28:56;;;;;;;8.68;7.78;;;;;;;10.23;66.45;94811.22;4203715;28;20466;-59
2023/05/11 01:31:10;;;;;;;14.50;8.32;;;;;;;10.29;66.32;94819.44;4203664;28;20049;-61
2023/05/11 01:33:13;;;;;;;8.85;7.57;;;;;;;10.25;66.01;94808.47;4199649;28;20079;-61
2023/05/11 01:35:20;;;;;;;8.90;7.70;;;;;;;10.17;65.98;94813.63;4224728;28;20710;-60
2023/05/11 01:37:22;;;;;;;12.10;8.38;;;;;;;10.10;65.63;94816.03;4223875;28;20055;-59
2023/05/11 01:39:31;;;;;;;9.32;8.30;;;;;;;10.11;65.96;94816.84;4226218;28;20062;-60
2023/05/11 01:41:33;;;;;;;9.20;8.27;;;;;;;10.14;66.09;94803.47;4223679;27;20051;-60
2023/05/11 01:43:36;;;;;;;10.02;8.07;;;;;;;10.19;66.28;94812.50;4222324;28;20048;-59
2023/05/11 01:45:41;;;;;;;11.13;8.57;;;;;;;10.27;65.94;94808.31;4216588;28;20124;-59
2023/05/11 01:47:44;;;;;;;9.80;8.80;;;;;;;10.17;65.60;94813.63;4224693;28;20139;-60
2023/05/11 01:49:46;;;;;;;9.93;8.80;;;;;;;9.88;66.07;94814.75;4223486;28;20044;-59
2023/05/11 01:51:50;;;;;;;9.43;8.48;;;;;;;9.92;66.10;94805.63;4220869;28;20329;-59
2023/05/11 01:53:52;;;;;;;11.13;9.10;;;;;;;9.91;66.13;94818.84;4216518;28;20051;-60
2023/05/11 01:55:55;;;;;;;10.18;8.57;;;;;;;9.89;66.09;94808.53;4219259;28;20504;-60
2023/05/11 01:57:57;;;;;;;9.45;8.48;;;;;;;9.80;66.17;94814.69;4208928;28;20082;-59
2023/05/11 02:00:00;;;;;;;9.77;8.63;;;;;;;9.73;66.77;94817.09;4210875;28;20127;-61
2023/05/11 02:02:03;;;;;;;10.07;9.07;;;;;;;9.62;66.67;94809.47;4211401;28;20402;-60
2023/05/11 02:04:04;;;;;;;10.02;8.68;;;;;;;9.67;66.46;94803.78;4222280;28;20123;-61
2023/05/11 02:06:06;;;;;;;10.73;9.00;;;;;;;9.64;66.06;94808.34;4219655;28;20126;-55
2023/05/11 02:08:09;;;;;;;9.43;8.52;;;;;;;9.66;66.83;94808.19;4223177;28;20067;-60
2023/05/11 02:10:12;;;;;;;9.80;8.80;;;;;;;9.67;66.35;94803.78;4225222;28;20071;-61
2023/05/11 02:12:17;;;;;;;9.68;8.70;;;;;;;9.68;65.61;94800.19;4225111;28;20059;-60
2023/05/11 02:14:20;;;;;;;9.80;8.88;;;;;;;9.68;65.64;94802.78;4223972;28;20078;-60
2023/05/11 02:16:23;;;;;;;9.40;8.48;;;;;;;9.69;65.88;94796.59;4220504;28;20056;-60
2023/05/11 02:18:26;;;;;;;9.37;8.33;;;;;;;9.73;65.72;94795.34;4223687;28;20699;-58
2023/05/11 02:20:27;;;;;;;11.70;9.75;;;;;;;9.76;65.76;94795.84;4227087;28;20039;-58
2023/05/11 02:22:29;;;;;;;19.52;15.65;;;;;;;9.81;65.05;94792.78;4226195;28;20079;-59
2023/05/11 02:24:31;;;;;;;14.13;11.35;;;;;;;9.77;65.52;94787.03;4213057;28;20052;-60
2023/05/11 02:26:33;;;;;;;8.77;7.82;;;;;;;9.62;65.22;94799.00;4210819;28;20131;-60
2023/05/11 02:28:34;;;;;;;9.32;8.43;;;;;;;9.62;65.51;94809.47;4210702;28;20079;-62
2023/05/11 02:30:47;;;;;;;9.43;8.15;;;;;;;9.59;65.32;94801.91;4211209;28;20264;-60
2023/05/11 02:32:51;;;;;;;10.18;7.78;;;;;;;9.64;65.24;94792.66;4208111;28;20557;-59
2023/05/11 02:34:58;;;;;;;11.25;8.88;;;;;;;9.62;65.51;94797.22;4215997;28;20111;-61
2023/05/11 02:37:01;;;;;;;8.68;7.88;;;;;;;9.45;65.01;94798.03;4221433;28;20079;-60
2023/05/11 02:39:06;;;;;;;8.52;7.72;;;;;;;9.43;65.42;94790.34;4224790;28;20044;-59
2023/05/11 02:41:12;;;;;;;9.35;7.78;;;;;;;9.49;65.35;94796.78;4226079;28;20044;-61
2023/05/11 02:43:19;;;;;;;8.35;7.55;;;;;;;9.43;64.86;94790.34;4221987;28;20101;-59
2023/05/11 02:45:22;;;;;;;10.70;7.78;;;;;;;9.48;65.35;94789.88;4224143;28;20062;-60
2023/05/11 02:47:27;;;;;;;9.13;7.43;;;;;;;9.55;65.23;94805.78;4223504;28;20063;-59
2023/05/11 02:49:30;;;;;;;8.70;7.68;;;;;;;9.55;64.87;94800.56;4212464;28;20052;-60
2023/05/11 02:51:35;;;;;;;9.32;8.15;;;;;;;9.45;65.21;94794.63;4222387;28;20423;-58
2023/05/11 02:53:39;;;;;;;12.75;8.07;;;;;;;9.43;65.69;94797.38;4225224;28;20047;-59
2023/05/11 02:55:41;;;;;;;8.73;7.00;;;;;;;9.45;64.88;94805.06;4212953;28;20048;-59
2023/05/11 02:57:44;;;;;;;7.78;7.07;;;;;;;9.47;64.94;94800.50;4222814;28;20052;-60
2023/05/11 02:59:46;;;;;;;8.38;7.38;;;;;;;9.40;65.17;94795.06;4218085;28;20064;-61
2023/05/11 03:01:48;;;;;;;7.97;7.10;;;;;;;9.29;65.85;94803.94;4214268;28;20043;-60
2023/05/11 03:03:50;;;;;;;10.73;9.68;;;;;;;9.40;66.11;94795.88;4212865;28;20476;-59
2023/05/11 03:05:51;;;;;;;7.93;7.20;;;;;;;9.49;65.57;94798.56;4221738;28;20338;-58
2023/05/11 03:07:56;;;;;;;8.43;7.53;;;;;;;9.51;64.74;94797.44;4224478;28;20044;-59
2023/05/11 03:09:59;;;;;;;8.13;7.03;;;;;;;9.46;65.46;94798.84;4220183;28;20043;-56
2023/05/11 03:12:01;;;;;;;8.45;7.65;;;;;;;9.49;65.22;94788.94;4225739;28;20036;-59
2023/05/11 03:14:03;;;;;;;9.90;8.00;;;;;;;9.54;64.90;94793.69;4212407;28;20047;-61
2023/05/11 03:16:05;;;;;;;8.52;7.68;;;;;;;9.61;64.60;94803.44;4223964;28;20127;-59
2023/05/11 03:18:07;;;;;;;8.98;7.63;;;;;;;9.57;64.54;94798.63;4226578;28;20131;-59
2023/05/11 03:20:09;;;;;;;9.55;8.18;;;;;;;9.54;64.57;94798.94;4216527;28;20117;-59
2023/05/11 03:22:11;;;;;;;10.63;7.60;;;;;;;9.46;65.55;94809.31;4210551;28;20796;-60
2023/05/11 03:24:12;;;;;;;8.25;7.45;;;;;;;9.44;65.27;94804.22;4213438;28;20054;-58
2023/05/11 03:26:16;;;;;;;9.45;8.18;;;;;;;9.46;64.91;94804.09;4216813;28;20117;-58
2023/05/11 03:28:18;;;;;;;;;;;;;;;9.46;65.29;94804.91;4217754;28;20509;-59
2023/05/11 03:30:20;;;;;;;8.52;7.68;;;;;;;9.37;65.56;94805.81;4228168;28;19988;-59
2023/05/11 03:32:22;;;;;;;9.88;8.38;;;;;;;9.29;66.35;94806.56;4209573;28;20087;-59
2023/05/11 03:34:24;;;;;;;9.30;7.90;;;;;;;9.30;65.83;94810.00;4219904;28;20043;-60
2023/05/11 03:36:26;;;;;;;9.95;8.85;;;;;;;9.34;66.06;94809.53;4227082;28;20092;-62
2023/05/11 03:38:29;;;;;;;9.20;7.78;;;;;;;9.42;65.63;94807.00;4225584;28;20090;-62
2023/05/11 03:40:33;;;;;;;15.05;8.57;;;;;;;9.32;65.52;94805.44;4228151;28;20043;-60
2023/05/11 03:42:35;;;;;;;9.73;8.73;;;;;;;9.30;66.18;94810.81;4226495;28;20100;-59
2023/05/11 03:44:37;;;;;;;11.23;8.90;;;;;;;9.25;66.32;94817.44;4225936;28;20051;-59
2023/05/11 03:46:40;;;;;;;10.15;9.10;;;;;;;9.17;66.53;94818.19;4222926;28;20052;-60
2023/05/11 03:48:42;;;;;;;11.35;8.60;;;;;;;9.23;66.55;94813.19;4219439;28;20047;-60
2023/05/11 03:50:44;;;;;;;10.05;8.50;;;;;;;9.33;65.80;94817.53;4227846;28;20413;-60
2023/05/11 03:52:46;;;;;;;11.02;8.82;;;;;;;9.32;65.70;94824.56;4222777;28;20090;-61
2023/05/11 03:54:48;;;;;;;11.07;8.73;;;;;;;9.29;65.60;94817.03;4222608;28;20509;-62
2023/05/11 03:56:51;;;;;;;9.27;8.27;;;;;;;9.16;66.00;94827.00;4222915;28;20079;-60
2023/05/11 03:58:53;;;;;;;9.43;8.18;;;;;;;9.23;66.67;94828.88;4214412;28;20052;-62
2023/05/11 04:00:54;;;;;;;9.35;8.35;;;;;;;9.11;66.29;94818.78;4223231;28;20086;-60
2023/05/11 04:02:56;;;;;;;12.10;9.75;;;;;;;9.10;66.39;94822.34;4224735;28;20120;-60
2023/05/11 04:04:58;;;;;;;10.07;9.07;;;;;;;9.16;66.79;94820.00;4228584;28;20483;-62
2023/05/11 04:07:00;;;;;;;11.00;8.77;;;;;;;9.30;66.23;94823.88;4225395;28;20123;-61
2023/05/11 04:09:01;;;;;;;9.80;8.80;;;;;;;9.36;65.92;94825.91;4226729;28;20050;-60
2023/05/11 04:11:03;;;;;;;10.73;9.55;;;;;;;9.28;65.71;94827.63;4224285;28;20404;-61
2023/05/11 04:13:05;;;;;;;13.70;9.82;;;;;;;9.21;66.90;94832.63;4226753;28;20089;-62
2023/05/11 04:15:07;;;;;;;9.77;8.77;;;;;;;9.09;66.54;94831.16;4226955;28;20098;-60
2023/05/11 04:17:08;;;;;;;10.90;9.15;;;;;;;9.05;67.12;94829.81;4225506;28;20489;-61
2023/05/11 04:19:10;;;;;;;12.82;10.27;;;;;;;9.09;67.10;94833.78;4212962;28;20064;-60
2023/05/11 04:21:12;;;;;;;13.32;9.65;;;;;;;9.09;68.00;94833.78;4227382;28;20640;-59
2023/05/11 04:23:14;;;;;;;11.63;10.02;;;;;;;9.11;66.77;94835.28;4225155;27;20051;-60
2023/05/11 04:25:16;;;;;;;10.45;9.45;;;;;;;9.23;67.48;94839.34;4212343;28;20075;-60
2023/05/11 04:27:18;;;;;;;12.07;9.90;;;;;;;9.25;67.31;94846.19;4225182;28;20510;-60
2023/05/11 04:29:19;;;;;;;14.68;10.52;;;;;;;9.32;66.97;94849.88;4228107;28;20043;-61
2023/05/11 04:31:21;;;;;;;12.95;10.70;;;;;;;9.24;66.93;94848.00;4220223;28;20079;-62
2023/05/11 04:33:23;;;;;;;12.48;10.32;;;;;;;9.19;66.89;94850.22;4222687;28;20043;-60
2023/05/11 04:35:24;;;;;;;15.15;11.20;;;;;;;9.09;67.96;94858.13;4227215;28;20167;-62
2023/05/11 04:37:26;;;;;;;12.13;10.85;;;;;;;9.11;66.96;94848.34;4226385;27;20043;-62
2023/05/11 04:39:28;;;;;;;12.15;10.85;;;;;;;9.15;67.91;94857.53;4227324;28;20135;-61
2023/05/11 04:41:29;;;;;;;14.90;11.15;;;;;;;9.07;68.28;94846.97;4214287;28;20101;-61
2023/05/11 04:43:31;;;;;;;13.07;10.63;;;;;;;9.19;67.78;94851.06;4227307;28;20135;-60
2023/05/11 04:45:33;;;;;;;17.00;12.35;;;;;;;9.19;67.45;94848.44;4227639;28;20048;-59
2023/05/11 04:47:34;;;;;;;13.48;12.02;;;;;;;9.27;67.16;94854.72;4226495;28;20097;-60
2023/05/11 04:49:36;;;;;;;19.15;12.80;;;;;;;9.42;68.04;94856.69;4224961;28;20044;-62
2023/05/11 04:51:38;;;;;;;16.98;12.45;;;;;;;9.46;67.11;94856.38;4214064;28;20066;-62
2023/05/11 04:53:39;;;;;;;13.85;12.45;;;;;;;9.57;67.20;94861.38;4221210;28;20040;-58
2023/05/11 04:55:42;;;;;;;17.43;13.10;;;;;;;9.47;67.60;94863.28;4211984;28;20077;-61
2023/05/11 04:57:44;;;;;;;13.48;11.82;;;;;;;9.59;67.24;94857.69;4211888;28;20280;-61
2023/05/11 04:59:46;;;;;;;15.93;12.35;;;;;;;9.56;66.89;94865.00;4212372;28;20074;-62
2023/05/11 05:01:47;;;;;;;15.18;12.82;;;;;;;9.59;67.27;94868.13;4212574;28;20040;-62
2023/05/11 05:03:49;;;;;;;16.58;13.05;;;;;;;9.47;66.91;94864.09;4211469;28;20055;-61
2023/05/11 05:05:51;;;;;;;14.63;12.13;;;;;;;9.25;67.55;94865.34;4212904;28;20055;-61
2023/05/11 05:07:53;;;;;;;15.13;13.07;;;;;;;9.25;68.20;94872.34;4223618;28;20444;-61
2023/05/11 05:09:54;;;;;;;15.13;13.55;;;;;;;9.33;68.79;94873.25;4217433;28;20075;-61
2023/05/11 05:11:56;;;;;;;16.58;14.02;;;;;;;9.42;68.04;94877.59;4227568;28;20039;-63
2023/05/11 05:13:57;;;;;;;17.83;13.75;;;;;;;9.49;68.23;94877.84;4227037;28;20083;-61
2023/05/11 05:15:59;;;;;;;18.90;14.70;;;;;;;9.64;67.47;94886.00;4224374;28;20048;-60
2023/05/11 05:18:01;;;;;;;15.10;13.60;;;;;;;9.60;67.79;94889.88;4215136;28;20451;-61
2023/05/11 05:20:03;;;;;;;18.23;14.77;;;;;;;9.58;67.19;94884.78;4226874;28;20054;-62
2023/05/11 05:22:05;;;;;;;19.05;15.50;;;;;;;9.59;67.69;94886.44;4226285;28;20179;-61
2023/05/11 05:24:10;;;;;;;19.98;15.48;;;;;;;9.59;67.78;94889.06;4217046;28;20109;-61
2023/05/11 05:26:11;;;;;;;21.63;16.45;;;;;;;9.57;68.26;94879.69;4219584;28;20130;-62
2023/05/11 05:28:13;;;;;;;20.20;16.52;;;;;;;9.67;67.97;94888.31;4211737;28;20044;-60
2023/05/11 05:30:15;;;;;;;17.83;14.82;;;;;;;9.70;68.11;94885.41;4216293;28;20482;-61
2023/05/11 05:32:17;;;;;;;17.92;15.50;;;;;;;9.76;68.20;94878.75;4209745;28;20167;-62
2023/05/11 05:34:18;;;;;;;18.00;15.60;;;;;;;9.75;68.06;94887.56;4219544;28;20476;-60
2023/05/11 05:36:20;;;;;;;18.95;16.67;;;;;;;9.83;68.33;94883.25;4210335;28;20375;-61
2023/05/11 05:38:21;;;;;;;19.85;15.43;;;;;;;9.82;67.61;94886.00;4218220;28;20094;-60
2023/05/11 05:40:23;;;;;;;19.30;16.20;;;;;;;9.94;67.86;94878.75;4221001;28;20043;-63
2023/05/11 05:42:25;;;;;;;20.15;16.77;;;;;;;9.90;67.86;94875.59;4219992;28;20047;-61
2023/05/11 05:44:26;;;;;;;19.50;14.45;;;;;;;9.90;66.90;94890.50;4218349;28;20044;-62
2023/05/11 05:46:28;;;;;;;17.73;14.68;;;;;;;9.92;67.15;94885.94;4217849;28;20438;-61
2023/05/11 05:48:30;;;;;;;16.48;14.88;;;;;;;9.95;67.23;94883.81;4220655;28;20160;-62
2023/05/11 05:50:32;;;;;;;19.88;15.02;;;;;;;9.89;67.65;94887.03;4217499;28;20062;-62
2023/05/11 05:52:33;;;;;;;16.05;14.43;;;;;;;9.87;67.37;94880.31;4215308;28;20052;-62
2023/05/11 05:54:35;;;;;;;19.20;14.48;;;;;;;9.86;67.39;94894.38;4214690;28;20075;-61
2023/05/11 05:56:36;;;;;;;16.08;14.38;;;;;;;9.93;67.22;94895.41;4217544;28;20591;-62
2023/05/11 05:58:38;;;;;;;17.52;14.75;;;;;;;9.99;66.60;94895.63;4216713;28;20139;-61
2023/05/11 06:00:40;;;;;;;17.42;14.50;;;;;;;10.02;66.94;94899.72;4215233;28;20087;-62
2023/05/11 06:02:42;;;;;;;16.42;13.68;;;;;;;9.95;67.03;94888.22;4212829;28;20116;-62
2023/05/11 06:04:43;;;;;;;19.70;14.13;;;;;;;10.00;66.74;94892.06;4211420;28;20425;-61
2023/05/11 06:06:45;;;;;;;16.15;14.52;;;;;;;10.03;66.62;94899.59;4216769;28;20044;-60
2023/05/11 06:08:47;;;;;;;16.80;13.60;;;;;;;10.04;66.25;94896.03;4225283;28;20079;-61
2023/05/11 06:10:48;;;;;;;15.18;13.68;;;;;;;9.96;66.42;94901.19;4227165;28;20088;-61
2023/05/11 06:12:50;;;;;;;17.92;13.23;;;;;;;9.90;66.77;94911.44;4225656;28;20044;-62
2023/05/11 06:14:51;;;;;;;17.08;13.75;;;;;;;9.88;66.46;94908.94;4227415;28;20039;-61
2023/05/11 06:16:53;;;;;;;18.58;14.73;;;;;;;9.90;66.93;94912.25;4227071;28;20039;-61
2023/05/11 06:18:55;;;;;;;14.57;13.07;;;;;;;10.00;66.34;94909.53;4226138;28;20240;-61
2023/05/11 06:20:58;;;;;;;16.50;14.55;;;;;;;10.07;65.82;94918.44;4225766;28;20052;-61
2023/05/11 06:22:59;;;;;;;16.35;14.57;;;;;;;10.11;65.80;94913.72;4225390;28;20051;-62
2023/05/11 06:25:01;;;;;;;19.48;16.35;;;;;;;10.17;65.73;94913.94;4211122;28;20532;-62
2023/05/11 06:27:03;;;;;;;16.10;14.50;;;;;;;10.25;65.31;94914.00;4211022;28;20098;-61
2023/05/11 06:29:05;;;;;;;15.82;13.82;;;;;;;10.16;65.38;94919.34;4220592;28;20043;-62
2023/05/11 06:31:06;;;;;;;19.05;15.57;;;;;;;10.13;66.01;94917.00;4214252;28;20044;-60
2023/05/11 06:33:08;;;;;;;20.83;16.27;;;;;;;10.28;66.41;94917.28;4215801;28;20067;-62
2023/05/11 06:35:10;;;;;;;16.77;14.98;;;;;;;10.29;65.50;94917.19;4218059;28;20139;-61
2023/05/11 06:37:14;;;;;;;16.77;14.23;;;;;;;10.35;65.40;94921.00;4219446;28;20055;-62
2023/05/11 06:39:16;;;;;;;18.15;15.00;;;;;;;10.31;66.16;94912.63;4217787;28;20043;-58
2023/05/11 06:41:18;;;;;;;16.30;14.60;;;;;;;10.40;65.38;94922.16;4218576;28;20044;-60
2023/05/11 06:43:20;;;;;;;18.98;14.60;;;;;;;10.44;65.28;94920.06;4220400;28;20075;-58
2023/05/11 06:45:22;;;;;;;16.73;14.77;;;;;;;10.48;64.68;94910.94;4220110;28;20455;-59
2023/05/11 06:47:23;;;;;;;15.40;13.80;;;;;;;10.43;65.13;94918.41;4222064;28;20052;-60
2023/05/11 06:49:25;;;;;;;16.67;14.18;;;;;;;10.52;64.75;94921.91;4223733;28;20544;-59
2023/05/11 06:51:27;;;;;;;19.30;15.60;;;;;;;10.46;65.33;94918.13;4220683;28;20056;-60
2023/05/11 06:53:29;;;;;;;15.95;13.80;;;;;;;10.31;65.02;94917.84;4221881;28;20104;-60
2023/05/11 06:55:30;;;;;;;15.82;14.23;;;;;;;10.24;65.66;94914.19;4222192;28;20055;-61
2023/05/11 06:57:32;;;;;;;17.02;14.32;;;;;;;10.33;65.08;94915.09;4224228;28;20044;-61
2023/05/11 06:59:33;;;;;;;17.88;14.93;;;;;;;10.31;65.72;94914.41;4228043;28;20086;-61
2023/05/11 07:01:35;;;;;;;19.38;15.40;;;;;;;10.46;65.58;94915.50;4225493;28;20044;-62
2023/05/11 07:03:37;;;;;;;18.88;15.45;;;;;;;10.66;64.55;94918.75;4221465;28;20481;-62
2023/05/11 07:05:39;;;;;;;18.60;15.65;;;;;;;10.63;64.10;94916.44;4229601;28;20059;-59
2023/05/11 07:07:40;;;;;;;22.90;16.90;;;;;;;10.71;64.43;94926.97;4228134;28;20436;-59
2023/05/11 07:09:42;;;;;;;16.65;14.70;;;;;;;10.84;63.72;94916.06;4225663;28;20055;-61
2023/05/11 07:11:44;;;;;;;18.35;15.02;;;;;;;10.91;63.60;94918.91;4219868;28;20499;-59
2023/05/11 07:13:45;;;;;;;15.77;14.18;;;;;;;10.91;63.39;94922.34;4228830;28;20068;-61
2023/05/11 07:15:48;;;;;;;20.73;17.52;;;;;;;10.97;63.45;94926.97;4228937;28;20051;-61
2023/05/11 07:17:51;;;;;;;17.48;15.68;;;;;;;10.89;63.16;94921.69;4228577;28;20063;-61
2023/05/11 07:19:54;;;;;;;18.77;14.02;;;;;;;10.85;63.53;94922.97;4221680;28;20135;-62
2023/05/11 07:21:55;;;;;;;16.05;14.35;;;;;;;11.00;63.49;94923.22;4229541;28;20127;-62
2023/05/11 07:23:58;;;;;;;16.27;14.68;;;;;;;11.21;62.96;94928.06;4219957;28;20066;-61
2023/05/11 07:25:59;;;;;;;17.05;15.05;;;;;;;11.38;62.67;94921.91;4223513;28;20123;-62
2023/05/11 07:28:02;;;;;;;17.50;14.07;;;;;;;11.42;61.96;94922.38;4220963;28;20101;-61
2023/05/11 07:30:04;;;;;;;17.27;13.68;;;;;;;11.34;62.24;94923.19;4218534;28;20127;-61
2023/05/11 07:32:06;;;;;;;20.15;13.00;;;;;;;11.25;62.05;94929.41;4212611;28;20044;-60
2023/05/11 07:34:07;;;;;;;12.93;11.55;;;;;;;11.26;61.98;94921.34;4222568;28;20424;-63
2023/05/11 07:36:09;;;;;;;13.05;11.55;;;;;;;11.24;61.43;94930.38;4218791;28;20063;-63
2023/05/11 07:38:12;;;;;;;13.95;12.43;;;;;;;11.30;61.56;94936.78;4219523;28;20067;-62
2023/05/11 07:40:14;;;;;;;13.50;11.95;;;;;;;11.13;61.93;94928.03;4219541;28;20057;-62
2023/05/11 07:42:15;;;;;;;17.38;11.85;;;;;;;11.18;61.70;94920.50;4212857;28;20728;-63
2023/05/11 07:44:17;;;;;;;13.88;12.40;;;;;;;11.13;62.12;94934.09;4212882;28;20371;-63
2023/05/11 07:46:19;;;;;;;13.77;12.38;;;;;;;11.34;61.95;94931.06;4213108;28;20074;-61
2023/05/11 07:48:21;;;;;;;13.35;11.95;;;;;;;11.53;60.97;94931.78;4221861;28;20044;-61
2023/05/11 07:50:22;;;;;;;14.40;11.77;;;;;;;11.65;60.47;94935.75;4221708;28;20139;-62
2023/05/11 07:52:25;;;;;;;13.82;11.40;;;;;;;11.60;60.16;94924.94;4217858;28;20482;-63
2023/05/11 07:54:27;;;;;;;14.45;12.98;;;;;;;11.59;60.69;94941.63;4218542;28;20056;-60
2023/05/11 07:56:28;;;;;;;14.15;11.88;;;;;;;11.55;60.28;94932.44;4213658;28;20048;-62
2023/05/11 07:58:31;;;;;;;13.50;12.10;;;;;;;11.27;60.70;94940.53;4220074;28;20047;-62
2023/05/11 08:00:33;;;;;;;15.73;11.35;;;;;;;11.31;60.95;94938.41;4217278;28;20044;-64
2023/05/11 08:02:34;;;;;;;12.68;11.38;;;;;;;11.35;60.05;94945.00;4215892;28;20054;-62
2023/05/11 08:04:36;;;;;;;13.63;11.95;;;;;;;11.48;60.46;94940.94;4220368;28;20116;-62
2023/05/11 08:06:38;;;;;;;14.30;12.80;;;;;;;11.66;59.95;94930.34;4217096;28;20065;-64
2023/05/11 08:08:40;;;;;;;12.45;11.20;;;;;;;11.90;58.93;94930.63;4229486;28;20048;-63
2023/05/11 08:10:42;;;;;;;11.50;10.40;;;;;;;11.81;58.56;94940.25;4216619;28;20418;-62
2023/05/11 08:12:43;;;;;;;15.20;10.45;;;;;;;11.85;58.67;94937.13;4222026;28;20049;-63
2023/05/11 08:14:45;;;;;;;11.82;10.23;;;;;;;11.99;57.70;94943.56;4227525;28;20501;-61
2023/05/11 08:16:48;;;;;;;11.48;10.27;;;;;;;12.07;57.84;94934.91;4226658;28;20483;-62
2023/05/11 08:18:50;;;;;;;14.18;10.98;;;;;;;12.20;57.48;94932.63;4213308;28;20127;-60
2023/05/11 08:20:52;;;;;;;12.88;10.70;;;;;;;12.28;57.15;94931.78;4224743;28;20040;-62
2023/05/11 08:22:54;;;;;;;11.38;10.15;;;;;;;12.38;56.48;94935.06;4226323;28;20377;-61
2023/05/11 08:24:55;;;;;;;10.57;9.48;;;;;;;12.46;55.86;94934.25;4218340;28;20105;-67
2023/05/11 08:26:57;;;;;;;10.52;9.52;;;;;;;12.62;56.12;94933.41;4212475;28;20367;-61
2023/05/11 08:28:59;;;;;;;11.35;10.05;;;;;;;12.80;55.96;94923.56;4220277;28;20044;-61
2023/05/11 08:31:00;;;;;;;9.98;8.75;;;;;;;12.74;55.36;94931.28;4224397;28;20391;-62
2023/05/11 08:35:39;;;;;;;10.48;9.30;;;;;;;12.59;55.48;94936.38;4211445;28;20052;-65
2023/05/11 08:37:40;;;;;;;10.60;9.55;;;;;;;12.76;55.15;94935.38;4227151;28;20096;-64
2023/05/11 08:39:43;;;;;;;13.98;10.77;;;;;;;12.77;55.83;94934.38;4228690;28;20082;-62
2023/05/11 08:41:50;;;;;;;14.55;10.68;;;;;;;12.70;55.72;94939.50;4224891;28;20047;-65
2023/05/11 08:43:54;;;;;;;11.35;9.88;;;;;;;12.68;55.09;94932.75;4219139;28;20505;-63
2023/05/11 08:46:00;;;;;;;10.20;9.20;;;;;;;12.67;54.95;94937.22;4220016;28;20477;-63
2023/05/11 08:48:03;;;;;;;11.93;9.35;;;;;;;12.65;55.38;94939.19;4221816;28;20116;-62
2023/05/11 08:50:05;;;;;;;10.48;9.38;;;;;;;12.34;55.13;94941.63;4216489;28;20040;-62
2023/05/11 08:52:08;;;;;;;12.05;9.43;;;;;;;12.38;55.91;94935.06;4223619;28;20055;-62
2023/05/11 08:54:09;;;;;;;10.57;9.15;;;;;;;12.46;55.97;94926.38;4227628;28;20074;-62
2023/05/11 08:56:12;;;;;;;10.55;9.45;;;;;;;12.47;55.72;94925.38;4226761;28;20048;-62
2023/05/11 08:58:18;;;;;;;11.25;9.70;;;;;;;12.66;55.88;94924.22;4215857;28;20079;-62
2023/05/11 09:00:22;;;;;;;12.45;9.05;;;;;;;12.67;55.11;94921.44;4225956;28;20530;-61
2023/05/11 09:02:24;;;;;;;12.32;8.75;;;;;;;12.32;55.90;94921.78;4224834;28;20052;-63
2023/05/11 09:04:26;;;;;;;10.73;9.68;;;;;;;12.57;56.40;94920.78;4224184;28;20051;-63
2023/05/11 09:06:28;;;;;;;9.93;8.90;;;;;;;12.79;55.50;94927.16;4225725;28;20052;-60
2023/05/11 09:08:30;;;;;;;13.00;8.15;;;;;;;12.89;55.19;94913.84;4224938;28;20047;-62
2023/05/11 09:10:32;;;;;;;12.18;8.55;;;;;;;13.07;55.08;94916.25;4222858;28;20493;-63
2023/05/11 09:12:34;;;;;;;9.18;8.38;;;;;;;13.11;54.84;94912.28;4210735;28;20433;-60
2023/05/11 09:14:36;;;;;;;9.07;8.05;;;;;;;13.08;54.08;94912.66;4223504;28;20445;-61
2023/05/11 09:16:38;;;;;;;10.60;8.02;;;;;;;13.01;54.92;94923.00;4218059;28;20047;-62
2023/05/11 09:18:47;;;;;;;8.45;7.65;;;;;;;12.79;55.00;94913.19;4224762;28;20054;-62
2023/05/11 09:20:49;;;;;;;8.63;7.72;;;;;;;12.49;56.01;94924.22;4223876;28;20458;-62
2023/05/11 09:22:52;;;;;;;12.00;8.10;;;;;;;12.46;56.52;94919.31;4226569;28;20043;-61
2023/05/11 09:24:53;;;;;;;10.10;9.10;;;;;;;12.63;56.22;94920.13;4217379;28;20047;-61
2023/05/11 09:27:08;;;;;;;10.55;8.23;;;;;;;12.54;55.91;94928.16;4222517;28;20065;-59
2023/05/11 09:29:10;;;;;;;8.68;7.78;;;;;;;12.67;56.36;94926.69;4209186;28;20043;-61
2023/05/11 09:31:12;;;;;;;8.10;7.30;;;;;;;12.84;56.06;94919.59;4208367;28;20571;-62
2023/05/11 09:33:20;;;;;;;11.63;8.95;;;;;;;13.06;56.10;94925.13;4217063;28;20418;-66
2023/05/11 09:35:32;;;;;;;9.93;8.60;;;;;;;13.21;55.60;94925.25;4221857;28;20150;-63
2023/05/11 09:37:34;;;;;;;8.82;7.90;;;;;;;13.32;55.35;94911.75;4225619;28;20212;-60